sensor_id;sensor_type;location;lat;lon;timestamp;pressure;altitude;pressure_sealevel;temperature;humidity
6565;BME280;3316;44.118;27.258;2022-10-28T00:01:27;102464.78;;;13.93;100.00
6565;BME280;3316;44.118;27.258;2022-10-28T00:03:55;102477.13;;;13.91;100.00
6565;BME280;3316;44.118;27.258;2022-10-28T00:06:22;102470.06;;;13.93;100.00
6565;BME280;3316;44.118;27.258;2022-10-28T00:08:48;102473.56;;;13.83;100.00
6565;BME280;3316;44.118;27.258;2022-10-28T00:11:25;102461.16;;;13.76;100.00
6565;BME280;3316;44.118;27.258;2022-10-28T00:13:54;102426.66;;;13.53;100.00
6565;BME280;3316;44.118;27.258;2022-10-28T00:16:22;102425.75;;;13.51;100.00
6565;BME280;3316;44.118;27.258;2022-10-28T00:18:48;102466.41;;;13.68;100.00
6565;BME280;3316;44.118;27.258;2022-10-28T00:21:20;102465.56;;;13.74;100.00
6565;BME280;3316;44.118;27.258;2022-10-28T00:23:45;102467.31;;;13.67;100.00
6565;BME280;3316;44.118;27.258;2022-10-28T00:26:17;102467.31;;;13.73;100.00
6565;BME280;3316;44.118;27.258;2022-10-28T00:28:45;102466.34;;;13.55;100.00
6565;BME280;3316;44.118;27.258;2022-10-28T00:31:12;102473.38;;;13.50;100.00
6565;BME280;3316;44.118;27.258;2022-10-28T00:33:38;102469.72;;;13.35;100.00
6565;BME280;3316;44.118;27.258;2022-10-28T00:36:14;102465.28;;;13.31;100.00
6565;BME280;3316;44.118;27.258;2022-10-28T00:38:42;102457.25;;;13.19;100.00
6565;BME280;3316;44.118;27.258;2022-10-28T00:41:08;102421.91;;;13.05;100.00
6565;BME280;3316;44.118;27.258;2022-10-28T00:43:52;102474.94;;;13.26;100.00
6565;BME280;3316;44.118;27.258;2022-10-28T00:46:25;102467.88;;;13.24;100.00
6565;BME280;3316;44.118;27.258;2022-10-28T00:48:57;102472.22;;;13.19;100.00
6565;BME280;3316;44.118;27.258;2022-10-28T00:51:25;102463.38;;;13.14;100.00
6565;BME280;3316;44.118;27.258;2022-10-28T00:53:52;102477.50;;;13.17;100.00
6565;BME280;3316;44.118;27.258;2022-10-28T00:56:18;102480.19;;;13.22;100.00
6565;BME280;3316;44.118;27.258;2022-10-28T00:58:45;102475.69;;;13.10;100.00
6565;BME280;3316;44.118;27.258;2022-10-28T01:01:12;102468.56;;;13.03;100.00
6565;BME280;3316;44.118;27.258;2022-10-28T01:03:38;102482.59;;;12.99;100.00
6565;BME280;3316;44.118;27.258;2022-10-28T01:06:04;102438.31;;;12.71;100.00
6565;BME280;3316;44.118;27.258;2022-10-28T01:08:30;102478.19;;;12.97;100.00
6565;BME280;3316;44.118;27.258;2022-10-28T01:13:54;102483.38;;;12.89;100.00
6565;BME280;3316;44.118;27.258;2022-10-28T01:22:04;102470.84;;;12.66;100.00
6565;BME280;3316;44.118;27.258;2022-10-28T01:30:19;102472.44;;;12.50;100.00
6565;BME280;3316;44.118;27.258;2022-10-28T01:32:51;102474.22;;;12.54;100.00
6565;BME280;3316;44.118;27.258;2022-10-28T01:43:35;102481.97;;;12.39;100.00
6565;BME280;3316;44.118;27.258;2022-10-28T01:46:11;102469.56;;;12.32;100.00
6565;BME280;3316;44.118;27.258;2022-10-28T01:48:42;102468.66;;;12.30;100.00
6565;BME280;3316;44.118;27.258;2022-10-28T01:51:17;102476.59;;;12.31;100.00
6565;BME280;3316;44.118;27.258;2022-10-28T01:53:48;102476.59;;;12.31;100.00
6565;BME280;3316;44.118;27.258;2022-10-28T01:56:20;102467.78;;;12.31;100.00
6565;BME280;3316;44.118;27.258;2022-10-28T01:58:46;102468.50;;;12.15;100.00
6565;BME280;3316;44.118;27.258;2022-10-28T02:01:13;102458.72;;;12.09;100.00
6565;BME280;3316;44.118;27.258;2022-10-28T02:03:38;102464.16;;;12.21;100.00
6565;BME280;3316;44.118;27.258;2022-10-28T02:06:06;102453.44;;;12.09;100.00
6565;BME280;3316;44.118;27.258;2022-10-28T02:13:57;102476.91;;;11.87;100.00
6565;BME280;3316;44.118;27.258;2022-10-28T02:27:17;102471.94;;;11.51;100.00
6565;BME280;3316;44.118;27.258;2022-10-28T02:29:52;102463.13;;;11.49;100.00
6565;BME280;3316;44.118;27.258;2022-10-28T02:32:22;102469.38;;;11.55;100.00
6565;BME280;3316;44.118;27.258;2022-10-28T02:34:53;102456.06;;;11.46;100.00
6565;BME280;3316;44.118;27.258;2022-10-28T02:37:24;102461.38;;;11.49;100.00
6565;BME280;3316;44.118;27.258;2022-10-28T02:39:53;102456.03;;;11.45;100.00
6565;BME280;3316;44.118;27.258;2022-10-28T02:42:24;102449.59;;;11.26;100.00
6565;BME280;3316;44.118;27.258;2022-10-28T02:44:58;102464.63;;;11.32;100.00
6565;BME280;3316;44.118;27.258;2022-10-28T02:47:28;102451.13;;;11.14;100.00
6565;BME280;3316;44.118;27.258;2022-10-28T02:50:00;102466.81;;;11.05;100.00
6565;BME280;3316;44.118;27.258;2022-10-28T02:52:28;102455.94;;;10.87;100.00
6565;BME280;3316;44.118;27.258;2022-10-28T02:54:58;102458.59;;;10.87;100.00
6565;BME280;3316;44.118;27.258;2022-10-28T02:57:31;102459.44;;;10.84;100.00
6565;BME280;3316;44.118;27.258;2022-10-28T03:00:00;102435.50;;;10.70;100.00
6565;BME280;3316;44.118;27.258;2022-10-28T03:02:26;102464.59;;;10.78;100.00
6565;BME280;3316;44.118;27.258;2022-10-28T03:04:52;102425.56;;;10.56;100.00
6565;BME280;3316;44.118;27.258;2022-10-28T03:07:18;102470.78;;;10.80;100.00
6565;BME280;3316;44.118;27.258;2022-10-28T03:09:44;102463.69;;;10.77;100.00
6565;BME280;3316;44.118;27.258;2022-10-28T03:12:09;102474.22;;;10.76;100.00
6565;BME280;3316;44.118;27.258;2022-10-28T03:14:34;102469.88;;;10.80;100.00
6565;BME280;3316;44.118;27.258;2022-10-28T03:17:00;102473.41;;;10.80;100.00
6565;BME280;3316;44.118;27.258;2022-10-28T03:19:25;102460.91;;;10.68;100.00
6565;BME280;3316;44.118;27.258;2022-10-28T03:21:51;102480.28;;;10.72;100.00
6565;BME280;3316;44.118;27.258;2022-10-28T03:24:16;102475.84;;;10.69;100.00
6565;BME280;3316;44.118;27.258;2022-10-28T03:26:42;102475.78;;;10.66;100.00
6565;BME280;3316;44.118;27.258;2022-10-28T03:29:07;102483.84;;;10.75;100.00
6565;BME280;3316;44.118;27.258;2022-10-28T03:31:33;102461.03;;;10.74;100.00
6565;BME280;3316;44.118;27.258;2022-10-28T03:33:58;102468.09;;;10.78;100.00
6565;BME280;3316;44.118;27.258;2022-10-28T03:36:23;102467.28;;;10.83;100.00
6565;BME280;3316;44.118;27.258;2022-10-28T03:38:49;102483.13;;;10.84;100.00
6565;BME280;3316;44.118;27.258;2022-10-28T03:41:14;102477.81;;;10.81;100.00
6565;BME280;3316;44.118;27.258;2022-10-28T03:43:40;102471.72;;;10.84;100.00
6565;BME280;3316;44.118;27.258;2022-10-28T03:46:05;102469.91;;;10.83;100.00
6565;BME280;3316;44.118;27.258;2022-10-28T03:48:31;102473.34;;;10.78;100.00
6565;BME280;3316;44.118;27.258;2022-10-28T03:50:56;102476.09;;;10.83;100.00
6565;BME280;3316;44.118;27.258;2022-10-28T03:53:21;102472.59;;;10.84;100.00
6565;BME280;3316;44.118;27.258;2022-10-28T03:55:54;102479.66;;;10.87;100.00
6565;BME280;3316;44.118;27.258;2022-10-28T03:58:20;102475.16;;;10.81;100.00
6565;BME280;3316;44.118;27.258;2022-10-28T04:00:47;102482.03;;;10.73;100.00
6565;BME280;3316;44.118;27.258;2022-10-28T04:03:17;102482.16;;;10.79;100.00
6565;BME280;3316;44.118;27.258;2022-10-28T04:05:43;102477.00;;;10.87;100.00
6565;BME280;3316;44.118;27.258;2022-10-28T04:08:09;102473.44;;;10.82;100.00
6565;BME280;3316;44.118;27.258;2022-10-28T04:10:34;102475.84;;;10.71;100.00
6565;BME280;3316;44.118;27.258;2022-10-28T04:13:00;102479.34;;;10.70;100.00
6565;BME280;3316;44.118;27.258;2022-10-28T04:15:26;102432.53;;;10.54;100.00
6565;BME280;3316;44.118;27.258;2022-10-28T04:17:52;102434.25;;;10.50;100.00
6565;BME280;3316;44.118;27.258;2022-10-28T04:20:17;102478.47;;;10.69;100.00
6565;BME280;3316;44.118;27.258;2022-10-28T04:22:43;102474.94;;;10.69;100.00
6565;BME280;3316;44.118;27.258;2022-10-28T04:25:08;102461.97;;;10.80;100.00
6565;BME280;3316;44.118;27.258;2022-10-28T04:27:34;102477.81;;;10.83;100.00
6565;BME280;3316;44.118;27.258;2022-10-28T04:30:00;102486.75;;;10.91;100.00
6565;BME280;3316;44.118;27.258;2022-10-28T04:32:26;102468.25;;;10.86;100.00
6565;BME280;3316;44.118;27.258;2022-10-28T04:34:51;102478.13;;;10.99;100.00
6565;BME280;3316;44.118;27.258;2022-10-28T04:37:17;102479.03;;;11.01;100.00
6565;BME280;3316;44.118;27.258;2022-10-28T04:39:42;102486.13;;;11.05;100.00
6565;BME280;3316;44.118;27.258;2022-10-28T04:42:07;102472.88;;;10.99;100.00
6565;BME280;3316;44.118;27.258;2022-10-28T04:44:33;102476.50;;;11.06;100.00
6565;BME280;3316;44.118;27.258;2022-10-28T04:46:58;102478.44;;;11.17;100.00
6565;BME280;3316;44.118;27.258;2022-10-28T04:49:24;102485.56;;;11.21;100.00
6565;BME280;3316;44.118;27.258;2022-10-28T04:51:49;102487.41;;;11.28;100.00
6565;BME280;3316;44.118;27.258;2022-10-28T04:54:15;102488.31;;;11.30;100.00
6565;BME280;3316;44.118;27.258;2022-10-28T04:56:40;102481.19;;;11.23;100.00
6565;BME280;3316;44.118;27.258;2022-10-28T04:59:05;102490.75;;;11.20;100.00
6565;BME280;3316;44.118;27.258;2022-10-28T05:01:31;102502.19;;;11.20;100.00
6565;BME280;3316;44.118;27.258;2022-10-28T05:03:56;102439.09;;;10.77;100.00
6565;BME280;3316;44.118;27.258;2022-10-28T05:06:21;102500.47;;;11.22;100.00
6565;BME280;3316;44.118;27.258;2022-10-28T05:08:47;102512.38;;;11.50;100.00
6565;BME280;3316;44.118;27.258;2022-10-28T05:11:13;102499.34;;;12.20;100.00
6565;BME280;3316;44.118;27.258;2022-10-28T05:13:38;102494.16;;;13.07;100.00
6565;BME280;3316;44.118;27.258;2022-10-28T05:16:04;102503.50;;;13.76;100.00
6565;BME280;3316;44.118;27.258;2022-10-28T05:18:29;102518.13;;;14.74;100.00
6565;BME280;3316;44.118;27.258;2022-10-28T05:20:55;102519.06;;;15.77;100.00
6565;BME280;3316;44.118;27.258;2022-10-28T05:23:21;102522.22;;;16.85;100.00
6565;BME280;3316;44.118;27.258;2022-10-28T05:25:48;102529.38;;;17.86;100.00
6565;BME280;3316;44.118;27.258;2022-10-28T05:28:13;102537.28;;;18.70;96.16
6565;BME280;3316;44.118;27.258;2022-10-28T05:30:38;102509.00;;;19.17;89.92
6565;BME280;3316;44.118;27.258;2022-10-28T05:33:04;102539.13;;;20.26;81.68
6565;BME280;3316;44.118;27.258;2022-10-28T05:35:30;102539.38;;;20.96;78.28
6565;BME280;3316;44.118;27.258;2022-10-28T05:37:56;102550.19;;;21.30;76.74
6565;BME280;3316;44.118;27.258;2022-10-28T05:40:21;102555.19;;;22.12;68.65
6565;BME280;3316;44.118;27.258;2022-10-28T05:42:47;102553.94;;;22.55;63.34
6565;BME280;3316;44.118;27.258;2022-10-28T05:45:13;102547.72;;;22.85;59.19
6565;BME280;3316;44.118;27.258;2022-10-28T05:47:46;102556.13;;;23.57;55.51
6565;BME280;3316;44.118;27.258;2022-10-28T05:50:14;102555.41;;;24.03;52.95
6565;BME280;3316;44.118;27.258;2022-10-28T05:52:44;102564.63;;;24.21;51.44
6565;BME280;3316;44.118;27.258;2022-10-28T05:55:10;102567.69;;;24.35;50.34
6565;BME280;3316;44.118;27.258;2022-10-28T05:57:35;102569.34;;;24.87;48.58
6565;BME280;3316;44.118;27.258;2022-10-28T06:00:02;102567.06;;;25.42;46.89
6565;BME280;3316;44.118;27.258;2022-10-28T06:02:28;102547.88;;;25.50;45.38
6565;BME280;3316;44.118;27.258;2022-10-28T06:04:53;102564.69;;;25.77;44.45
6565;BME280;3316;44.118;27.258;2022-10-28T06:07:18;102518.72;;;26.20;42.96
6565;BME280;3316;44.118;27.258;2022-10-28T06:09:44;102560.34;;;27.10;40.52
6565;BME280;3316;44.118;27.258;2022-10-28T06:12:09;102568.50;;;27.27;40.01
6565;BME280;3316;44.118;27.258;2022-10-28T06:14:35;102571.22;;;27.63;39.94
6565;BME280;3316;44.118;27.258;2022-10-28T06:17:00;102573.38;;;27.57;39.29
6565;BME280;3316;44.118;27.258;2022-10-28T06:19:26;102572.25;;;27.78;38.95
6565;BME280;3316;44.118;27.258;2022-10-28T06:21:51;102565.59;;;27.85;38.36
6565;BME280;3316;44.118;27.258;2022-10-28T06:24:17;102572.72;;;28.54;37.07
6565;BME280;3316;44.118;27.258;2022-10-28T06:26:42;102569.75;;;29.23;35.31
6565;BME280;3316;44.118;27.258;2022-10-28T06:29:11;102573.09;;;29.28;35.31
6565;BME280;3316;44.118;27.258;2022-10-28T06:31:40;102577.59;;;29.74;34.48
6565;BME280;3316;44.118;27.258;2022-10-28T06:34:08;102583.91;;;30.18;33.94
6565;BME280;3316;44.118;27.258;2022-10-28T06:36:34;102582.22;;;30.45;33.51
6565;BME280;3316;44.118;27.258;2022-10-28T06:38:59;102589.53;;;30.87;32.65
6565;BME280;3316;44.118;27.258;2022-10-28T06:41:25;102590.28;;;31.44;31.83
6565;BME280;3316;44.118;27.258;2022-10-28T06:43:50;102594.69;;;31.59;31.58
6565;BME280;3316;44.118;27.258;2022-10-28T06:46:16;102578.31;;;31.73;31.77
6565;BME280;3316;44.118;27.258;2022-10-28T06:48:41;102573.09;;;32.22;30.77
6565;BME280;3316;44.118;27.258;2022-10-28T06:51:07;102575.69;;;32.36;29.98
6565;BME280;3316;44.118;27.258;2022-10-28T06:53:32;102584.00;;;32.47;29.98
6565;BME280;3316;44.118;27.258;2022-10-28T06:55:57;102565.88;;;32.33;29.98
6565;BME280;3316;44.118;27.258;2022-10-28T06:58:24;102588.94;;;33.40;29.11
6565;BME280;3316;44.118;27.258;2022-10-28T07:00:50;102580.25;;;33.93;28.58
6565;BME280;3316;44.118;27.258;2022-10-28T07:03:15;102581.38;;;33.90;28.04
6565;BME280;3316;44.118;27.258;2022-10-28T07:05:43;102580.50;;;34.25;27.91
6565;BME280;3316;44.118;27.258;2022-10-28T07:08:08;102582.66;;;33.63;28.71
6565;BME280;3316;44.118;27.258;2022-10-28T07:10:34;102574.19;;;33.55;27.88
6565;BME280;3316;44.118;27.258;2022-10-28T07:12:59;102592.53;;;34.22;27.73
6565;BME280;3316;44.118;27.258;2022-10-28T07:15:25;102592.75;;;34.54;27.32
6565;BME280;3316;44.118;27.258;2022-10-28T07:17:54;102591.38;;;35.15;26.48
6565;BME280;3316;44.118;27.258;2022-10-28T07:20:21;102569.34;;;35.16;25.97
6565;BME280;3316;44.118;27.258;2022-10-28T07:22:47;102583.78;;;35.18;25.99
6565;BME280;3316;44.118;27.258;2022-10-28T07:25:12;102590.19;;;35.39;26.10
6565;BME280;3316;44.118;27.258;2022-10-28T07:27:38;102582.25;;;35.36;25.71
6565;BME280;3316;44.118;27.258;2022-10-28T07:30:04;102594.97;;;35.69;25.67
6565;BME280;3316;44.118;27.258;2022-10-28T07:32:31;102593.00;;;34.95;25.98
6565;BME280;3316;44.118;27.258;2022-10-28T07:34:57;102566.72;;;35.26;25.75
6565;BME280;3316;44.118;27.258;2022-10-28T07:37:22;102568.00;;;35.42;25.28
6565;BME280;3316;44.118;27.258;2022-10-28T07:39:48;102572.13;;;35.37;25.03
6565;BME280;3316;44.118;27.258;2022-10-28T07:42:13;102571.72;;;35.84;25.25
6565;BME280;3316;44.118;27.258;2022-10-28T07:44:39;102563.19;;;35.35;25.34
6565;BME280;3316;44.118;27.258;2022-10-28T07:47:04;102556.94;;;35.01;25.80
6565;BME280;3316;44.118;27.258;2022-10-28T07:49:30;102575.31;;;34.88;26.33
6565;BME280;3316;44.118;27.258;2022-10-28T07:51:55;102558.44;;;34.83;26.08
6565;BME280;3316;44.118;27.258;2022-10-28T07:54:21;102571.84;;;35.08;25.78
6565;BME280;3316;44.118;27.258;2022-10-28T07:56:46;102569.41;;;34.72;26.11
6565;BME280;3316;44.118;27.258;2022-10-28T07:59:12;102577.66;;;33.91;27.29
6565;BME280;3316;44.118;27.258;2022-10-28T08:01:37;102558.06;;;34.65;26.66
6565;BME280;3316;44.118;27.258;2022-10-28T08:04:03;102582.03;;;35.28;25.60
6565;BME280;3316;44.118;27.258;2022-10-28T08:06:28;102570.00;;;34.97;26.11
6565;BME280;3316;44.118;27.258;2022-10-28T08:08:55;102579.94;;;34.76;26.55
6565;BME280;3316;44.118;27.258;2022-10-28T08:11:21;102566.00;;;35.02;25.98
6565;BME280;3316;44.118;27.258;2022-10-28T08:13:48;102581.44;;;35.56;26.03
6565;BME280;3316;44.118;27.258;2022-10-28T08:16:14;102586.19;;;35.43;25.86
6565;BME280;3316;44.118;27.258;2022-10-28T08:18:40;102581.41;;;35.14;26.47
6565;BME280;3316;44.118;27.258;2022-10-28T08:21:08;102587.16;;;34.88;26.51
6565;BME280;3316;44.118;27.258;2022-10-28T08:23:35;102587.50;;;34.84;26.39
6565;BME280;3316;44.118;27.258;2022-10-28T08:26:01;102586.78;;;34.93;26.79
6565;BME280;3316;44.118;27.258;2022-10-28T08:28:27;102586.75;;;35.15;26.18
6565;BME280;3316;44.118;27.258;2022-10-28T08:30:52;102582.53;;;35.22;26.69
6565;BME280;3316;44.118;27.258;2022-10-28T08:33:18;102563.16;;;34.81;26.64
6565;BME280;3316;44.118;27.258;2022-10-28T08:35:49;102585.28;;;33.75;28.08
6565;BME280;3316;44.118;27.258;2022-10-28T08:38:15;102594.25;;;35.02;27.20
6565;BME280;3316;44.118;27.258;2022-10-28T08:45:55;102587.16;;;34.66;27.13
6565;BME280;3316;44.118;27.258;2022-10-28T08:48:33;102576.81;;;34.92;26.89
6565;BME280;3316;44.118;27.258;2022-10-28T08:51:05;102591.22;;;35.27;26.82
6565;BME280;3316;44.118;27.258;2022-10-28T08:53:39;102584.28;;;36.18;25.75
6565;BME280;3316;44.118;27.258;2022-10-28T08:56:12;102578.16;;;36.35;25.37
6565;BME280;3316;44.118;27.258;2022-10-28T08:58:41;102566.19;;;36.57;25.45
6565;BME280;3316;44.118;27.258;2022-10-28T09:01:16;102537.81;;;35.33;25.65
6565;BME280;3316;44.118;27.258;2022-10-28T09:03:44;102567.41;;;35.50;25.95
6565;BME280;3316;44.118;27.258;2022-10-28T09:06:10;102561.81;;;36.04;25.49
6565;BME280;3316;44.118;27.258;2022-10-28T09:08:41;102558.34;;;35.70;26.04
6565;BME280;3316;44.118;27.258;2022-10-28T09:18:55;102564.44;;;36.56;25.16
6565;BME280;3316;44.118;27.258;2022-10-28T09:21:36;102563.22;;;36.39;24.98
6565;BME280;3316;44.118;27.258;2022-10-28T09:24:14;102561.22;;;36.00;25.54
6565;BME280;3316;44.118;27.258;2022-10-28T09:29:26;102486.66;;;35.65;25.47
6565;BME280;3316;44.118;27.258;2022-10-28T09:34:57;102536.91;;;34.78;26.53
6565;BME280;3316;44.118;27.258;2022-10-28T09:37:31;102542.25;;;34.91;26.44
6565;BME280;3316;44.118;27.258;2022-10-28T09:40:20;102528.56;;;34.80;26.32
6565;BME280;3316;44.118;27.258;2022-10-28T09:45:45;102530.91;;;34.07;26.99
6565;BME280;3316;44.118;27.258;2022-10-28T09:48:18;102532.72;;;33.95;27.58
6565;BME280;3316;44.118;27.258;2022-10-28T09:50:44;102515.09;;;33.65;27.52
6565;BME280;3316;44.118;27.258;2022-10-28T09:55:42;102510.19;;;32.00;29.91
6565;BME280;3316;44.118;27.258;2022-10-28T09:58:09;102505.69;;;31.86;30.64
6565;BME280;3316;44.118;27.258;2022-10-28T10:00:36;102516.44;;;31.36;30.63
6565;BME280;3316;44.118;27.258;2022-10-28T10:03:01;102478.84;;;30.61;31.63
6565;BME280;3316;44.118;27.258;2022-10-28T10:05:28;102508.25;;;30.12;32.99
6565;BME280;3316;44.118;27.258;2022-10-28T10:08:04;102420.03;;;29.18;33.92
6565;BME280;3316;44.118;27.258;2022-10-28T10:10:34;102497.06;;;28.34;35.91
6565;BME280;3316;44.118;27.258;2022-10-28T10:13:05;102486.91;;;27.55;37.91
6565;BME280;3316;44.118;27.258;2022-10-28T10:15:38;102499.72;;;27.16;38.20
6565;BME280;3316;44.118;27.258;2022-10-28T10:18:13;102456.38;;;26.63;39.50
6565;BME280;3316;44.118;27.258;2022-10-28T10:20:51;102486.13;;;26.24;40.16
6565;BME280;3316;44.118;27.258;2022-10-28T10:25:58;102480.63;;;25.67;42.34
6565;BME280;3316;44.118;27.258;2022-10-28T10:28:25;102468.72;;;25.31;42.66
6565;BME280;3316;44.118;27.258;2022-10-28T10:30:56;102461.44;;;25.33;42.82
6565;BME280;3316;44.118;27.258;2022-10-28T10:33:37;102470.84;;;25.44;44.01
6565;BME280;3316;44.118;27.258;2022-10-28T10:36:04;102466.91;;;25.31;43.22
6565;BME280;3316;44.118;27.258;2022-10-28T10:38:38;102461.44;;;25.33;43.98
6565;BME280;3316;44.118;27.258;2022-10-28T10:41:10;102437.09;;;25.14;43.16
6565;BME280;3316;44.118;27.258;2022-10-28T10:43:36;102445.75;;;25.01;43.18
6565;BME280;3316;44.118;27.258;2022-10-28T10:46:12;102425.00;;;25.03;43.37
6565;BME280;3316;44.118;27.258;2022-10-28T10:48:38;102443.09;;;25.42;42.78
6565;BME280;3316;44.118;27.258;2022-10-28T10:51:08;102429.53;;;25.44;41.77
6565;BME280;3316;44.118;27.258;2022-10-28T10:53:37;102445.59;;;25.47;41.21
6565;BME280;3316;44.118;27.258;2022-10-28T10:56:08;102439.38;;;25.65;39.62
6565;BME280;3316;44.118;27.258;2022-10-28T10:58:49;102442.41;;;25.57;39.29
6565;BME280;3316;44.118;27.258;2022-10-28T11:01:21;102434.13;;;25.62;40.18
6565;BME280;3316;44.118;27.258;2022-10-28T11:03:52;102429.41;;;25.67;40.22
6565;BME280;3316;44.118;27.258;2022-10-28T11:06:29;102445.19;;;25.76;39.87
6565;BME280;3316;44.118;27.258;2022-10-28T11:09:09;102430.00;;;25.74;39.53
6565;BME280;3316;44.118;27.258;2022-10-28T11:11:42;102428.66;;;25.64;39.90
6565;BME280;3316;44.118;27.258;2022-10-28T11:16:46;102428.66;;;25.64;38.63
6565;BME280;3316;44.118;27.258;2022-10-28T11:19:35;102428.66;;;25.64;38.88
6565;BME280;3316;44.118;27.258;2022-10-28T11:30:49;102418.41;;;25.72;38.20
6565;BME280;3316;44.118;27.258;2022-10-28T11:33:20;102416.38;;;25.77;37.41
6565;BME280;3316;44.118;27.258;2022-10-28T11:39:15;102411.69;;;25.62;37.33
6565;BME280;3316;44.118;27.258;2022-10-28T11:42:09;102409.31;;;25.54;38.46
6565;BME280;3316;44.118;27.258;2022-10-28T11:44:57;102405.94;;;25.29;38.63
6565;BME280;3316;44.118;27.258;2022-10-28T11:50:29;102390.81;;;25.05;39.57
6565;BME280;3316;44.118;27.258;2022-10-28T11:53:18;102391.56;;;25.08;39.92
6565;BME280;3316;44.118;27.258;2022-10-28T11:58:47;102385.91;;;25.14;39.87
6565;BME280;3316;44.118;27.258;2022-10-28T12:03:59;102385.16;;;24.91;40.45
6565;BME280;3316;44.118;27.258;2022-10-28T12:09:19;102376.41;;;25.06;40.21
6565;BME280;3316;44.118;27.258;2022-10-28T12:20:22;102356.34;;;24.49;39.85
6565;BME280;3316;44.118;27.258;2022-10-28T12:23:01;102359.88;;;24.50;39.49
6565;BME280;3316;44.118;27.258;2022-10-28T12:25:32;102368.78;;;24.52;39.43
6565;BME280;3316;44.118;27.258;2022-10-28T12:28:15;102364.00;;;24.37;39.33
6565;BME280;3316;44.118;27.258;2022-10-28T12:30:43;102356.66;;;24.19;39.31
6565;BME280;3316;44.118;27.258;2022-10-28T12:33:18;102353.50;;;24.31;39.64
6565;BME280;3316;44.118;27.258;2022-10-28T12:35:48;102358.69;;;24.35;39.68
6565;BME280;3316;44.118;27.258;2022-10-28T12:40:50;102358.81;;;24.32;39.46
6565;BME280;3316;44.118;27.258;2022-10-28T12:46:02;102354.19;;;24.14;40.12
6565;BME280;3316;44.118;27.258;2022-10-28T12:48:34;102331.31;;;23.79;41.36
6565;BME280;3316;44.118;27.258;2022-10-28T12:51:16;102350.63;;;23.66;41.58
6565;BME280;3316;44.118;27.258;2022-10-28T12:53:57;102345.66;;;23.55;41.92
6565;BME280;3316;44.118;27.258;2022-10-28T12:56:39;102342.38;;;23.47;41.96
6565;BME280;3316;44.118;27.258;2022-10-28T12:59:13;102322.66;;;23.48;42.73
6565;BME280;3316;44.118;27.258;2022-10-28T13:01:42;102341.28;;;23.53;42.64
6565;BME280;3316;44.118;27.258;2022-10-28T13:04:10;102345.00;;;23.49;43.08
6565;BME280;3316;44.118;27.258;2022-10-28T13:09:45;102343.06;;;23.52;42.90
6565;BME280;3316;44.118;27.258;2022-10-28T13:12:23;102344.09;;;23.50;43.45
6565;BME280;3316;44.118;27.258;2022-10-28T13:15:13;102332.53;;;23.48;43.21
6565;BME280;3316;44.118;27.258;2022-10-28T13:20:40;102344.09;;;23.24;43.46
6565;BME280;3316;44.118;27.258;2022-10-28T13:28:21;102346.25;;;23.40;43.69
6565;BME280;3316;44.118;27.258;2022-10-28T13:31:15;102346.84;;;23.22;44.29
6565;BME280;3316;44.118;27.258;2022-10-28T13:33:50;102340.50;;;23.25;44.33
6565;BME280;3316;44.118;27.258;2022-10-28T13:36:29;102331.09;;;23.13;45.03
6565;BME280;3316;44.118;27.258;2022-10-28T13:38:58;102339.28;;;23.09;45.81
6565;BME280;3316;44.118;27.258;2022-10-28T13:41:38;102333.25;;;23.02;45.24
6565;BME280;3316;44.118;27.258;2022-10-28T13:49:26;102332.34;;;23.03;45.87
6565;BME280;3316;44.118;27.258;2022-10-28T13:54:50;102326.72;;;22.84;47.80
6565;BME280;3316;44.118;27.258;2022-10-28T13:57:57;102325.50;;;22.68;48.30
6565;BME280;3316;44.118;27.258;2022-10-28T14:02:48;102319.66;;;22.54;48.98
6565;BME280;3316;44.118;27.258;2022-10-28T14:05:22;102307.06;;;22.58;49.43
6565;BME280;3316;44.118;27.258;2022-10-28T14:08:24;102325.63;;;22.36;50.20
6565;BME280;3316;44.118;27.258;2022-10-28T14:13:36;102318.91;;;22.23;52.27
6565;BME280;3316;44.118;27.258;2022-10-28T14:16:15;102323.38;;;22.23;52.49
6565;BME280;3316;44.118;27.258;2022-10-28T14:18:55;102297.66;;;22.17;53.30
6565;BME280;3316;44.118;27.258;2022-10-28T14:21:23;102312.16;;;22.10;53.71
6565;BME280;3316;44.118;27.258;2022-10-28T14:24:06;102315.72;;;22.10;54.70
6565;BME280;3316;44.118;27.258;2022-10-28T14:40:47;102314.78;;;21.53;60.34
6565;BME280;3316;44.118;27.258;2022-10-28T14:46:22;102323.06;;;21.44;61.81
6565;BME280;3316;44.118;27.258;2022-10-28T14:48:56;102316.22;;;21.34;63.25
6565;BME280;3316;44.118;27.258;2022-10-28T14:51:24;102322.66;;;21.27;63.18
6565;BME280;3316;44.118;27.258;2022-10-28T14:53:53;102304.81;;;21.27;63.02
6565;BME280;3316;44.118;27.258;2022-10-28T14:56:27;102319.25;;;21.22;63.54
6565;BME280;3316;44.118;27.258;2022-10-28T14:58:57;102311.75;;;21.02;65.84
6565;BME280;3316;44.118;27.258;2022-10-28T15:01:26;102319.09;;;20.93;66.88
6565;BME280;3316;44.118;27.258;2022-10-28T15:03:55;102315.78;;;20.83;69.58
6565;BME280;3316;44.118;27.258;2022-10-28T15:09:04;102316.13;;;20.70;72.35
6565;BME280;3316;44.118;27.258;2022-10-28T15:11:32;102313.00;;;20.53;74.20
6565;BME280;3316;44.118;27.258;2022-10-28T15:14:20;102318.66;;;20.40;76.36
6565;BME280;3316;44.118;27.258;2022-10-28T15:16:48;102312.09;;;20.15;79.72
6565;BME280;3316;44.118;27.258;2022-10-28T15:19:17;102317.56;;;20.11;82.86
6565;BME280;3316;44.118;27.258;2022-10-28T15:22:10;102317.19;;;19.89;84.28
6565;BME280;3316;44.118;27.258;2022-10-28T15:24:36;102319.44;;;19.66;85.60
6565;BME280;3316;44.118;27.258;2022-10-28T15:27:02;102315.09;;;19.61;84.15
6565;BME280;3316;44.118;27.258;2022-10-28T15:29:28;102316.47;;;19.38;85.89
6565;BME280;3316;44.118;27.258;2022-10-28T15:32:32;102325.69;;;19.19;88.00
6565;BME280;3316;44.118;27.258;2022-10-28T15:34:59;102320.66;;;19.04;88.65
6565;BME280;3316;44.118;27.258;2022-10-28T15:37:44;102328.06;;;18.89;90.16
6565;BME280;3316;44.118;27.258;2022-10-28T15:40:33;102318.56;;;18.73;91.79